createdAt,value
2023-01-17T00:01:04.181Z,100.00
2023-01-17T00:06:24.277Z,100.00
2023-01-17T00:11:25.606Z,100.00
2023-01-17T00:16:26.908Z,99.33
2023-01-17T00:21:48.496Z,99.42
2023-01-17T00:27:08.277Z,98.29
2023-01-17T00:32:09.542Z,97.59
2023-01-17T00:37:10.835Z,97.96
2023-01-17T00:42:12.132Z,97.25
2023-01-17T00:47:32.002Z,98.08
2023-01-17T00:52:51.722Z,98.83
2023-01-17T00:58:11.552Z,98.32
2023-01-17T01:03:32.498Z,98.14
2023-01-17T01:08:52.404Z,96.28
2023-01-17T01:14:12.815Z,95.86
2023-01-17T01:19:32.730Z,95.73
2023-01-17T01:24:53.549Z,97.87
2023-01-17T01:30:13.488Z,98.54
2023-01-17T01:35:14.962Z,100.00
2023-01-17T01:40:18.495Z,98.24
2023-01-17T01:45:21.898Z,98.11
2023-01-17T01:50:25.465Z,96.18
2023-01-17T01:55:29.797Z,94.99
2023-01-17T02:00:35.222Z,90.66
2023-01-17T02:05:36.621Z,87.90
2023-01-17T02:10:39.016Z,85.58
2023-01-17T02:15:40.303Z,82.35
2023-01-17T02:21:00.522Z,82.11
2023-01-17T02:26:10.673Z,79.58
2023-01-17T02:31:20.563Z,79.35
2023-01-17T02:36:24.984Z,82.10
2023-01-17T02:41:44.290Z,80.01
2023-01-17T02:46:45.701Z,80.17
2023-01-17T02:51:47.183Z,81.01
2023-01-17T02:57:07.252Z,80.89
2023-01-17T03:02:23.880Z,84.17
2023-01-17T03:07:27.181Z,86.98
2023-01-17T03:12:29.423Z,88.22
2023-01-17T03:17:32.345Z,90.84
2023-01-17T03:22:33.677Z,89.72
2023-01-17T03:27:35.257Z,91.37
2023-01-17T03:32:36.900Z,91.07
2023-01-17T03:37:38.244Z,90.78
2023-01-17T03:42:39.809Z,89.65
2023-01-17T03:47:41.145Z,91.56
2023-01-17T03:52:42.507Z,92.14
2023-01-17T03:57:43.824Z,93.23
2023-01-17T04:02:45.220Z,94.07
2023-01-17T04:07:46.575Z,95.49
2023-01-17T04:12:47.958Z,97.23
2023-01-17T04:17:49.299Z,97.50
2023-01-17T04:22:50.594Z,98.47
2023-01-17T04:27:52.639Z,95.56
2023-01-17T04:32:54.309Z,96.58
2023-01-17T04:37:55.627Z,98.08
2023-01-17T04:42:57.731Z,97.39
2023-01-17T04:48:02.652Z,97.54
2023-01-17T04:53:04.096Z,98.31
2023-01-17T04:58:05.401Z,96.83
2023-01-17T05:03:07.226Z,96.07
2023-01-17T05:08:08.538Z,98.77
2023-01-17T05:13:09.887Z,98.95
2023-01-17T05:18:12.617Z,100.00
2023-01-17T05:23:13.972Z,100.00
2023-01-17T05:28:15.331Z,100.00
2023-01-17T05:33:16.644Z,100.00
2023-01-17T05:38:18.302Z,100.00
2023-01-17T05:43:20.849Z,100.00
2023-01-17T05:48:23.393Z,100.00
2023-01-17T05:53:24.713Z,100.00
2023-01-17T05:58:26.576Z,100.00
2023-01-17T06:03:28.197Z,100.00
2023-01-17T06:08:29.539Z,100.00
2023-01-17T06:13:30.903Z,100.00
2023-01-17T06:18:32.210Z,100.00
2023-01-17T06:23:33.533Z,100.00
2023-01-17T06:28:35.054Z,100.00
2023-01-17T06:33:36.542Z,100.00
2023-01-17T06:38:37.848Z,100.00
2023-01-17T06:43:39.250Z,100.00
2023-01-17T06:48:43.516Z,100.00
2023-01-17T06:53:44.925Z,100.00
2023-01-17T06:58:50.111Z,100.00
2023-01-17T07:03:52.816Z,100.00
2023-01-17T07:08:57.543Z,100.00
2023-01-17T07:13:59.117Z,100.00
2023-01-17T07:19:00.448Z,100.00
2023-01-17T07:24:01.761Z,100.00
2023-01-17T07:29:05.971Z,100.00
2023-01-17T07:34:07.609Z,100.00
2023-01-17T07:39:09.609Z,100.00
2023-01-17T07:44:12.706Z,100.00
2023-01-17T07:49:14.599Z,100.00
2023-01-17T07:54:15.921Z,100.00
2023-01-17T07:59:18.074Z,100.00
2023-01-17T08:04:19.879Z,100.00
2023-01-17T08:09:21.376Z,100.00
2023-01-17T08:14:22.723Z,100.00
2023-01-17T08:19:24.067Z,100.00
2023-01-17T08:24:25.374Z,100.00
2023-01-17T08:29:26.669Z,100.00
2023-01-17T08:34:28.188Z,100.00
2023-01-17T08:39:29.614Z,100.00
2023-01-17T08:44:31.048Z,100.00
2023-01-17T08:49:32.413Z,93.65
2023-01-17T08:54:33.777Z,85.99
2023-01-17T08:59:35.316Z,81.50
2023-01-17T09:04:36.713Z,85.54
2023-01-17T09:09:38.137Z,90.84
2023-01-17T09:14:39.575Z,88.86
2023-01-17T09:19:46.471Z,90.03
2023-01-17T09:24:47.805Z,90.76
2023-01-17T09:29:49.180Z,84.25
2023-01-17T09:34:50.531Z,80.71
2023-01-17T09:39:51.878Z,74.67
2023-01-17T09:44:53.549Z,67.65
2023-01-17T09:49:57.009Z,63.39
2023-01-17T09:54:59.114Z,60.02
2023-01-17T10:00:09.800Z,58.09
2023-01-17T10:05:23.567Z,55.38
2023-01-17T10:10:33.794Z,56.97
2023-01-17T10:15:38.154Z,49.45
2023-01-17T10:20:39.463Z,45.60
2023-01-17T10:25:43.900Z,46.51
2023-01-17T10:30:49.615Z,51.02
2023-01-17T10:35:56.893Z,46.80
2023-01-17T10:41:01.679Z,44.49
2023-01-17T10:46:03.053Z,43.57
2023-01-17T10:51:08.497Z,43.99
2023-01-17T10:56:13.671Z,43.31
2023-01-17T11:01:20.271Z,43.90
2023-01-17T11:06:26.276Z,42.64
2023-01-17T11:11:30.979Z,40.48
2023-01-17T11:16:32.560Z,45.39
2023-01-17T11:21:35.158Z,44.80
2023-01-17T11:26:37.806Z,43.79
2023-01-17T11:31:39.128Z,45.43
2023-01-17T11:36:41.071Z,41.73
2023-01-17T11:41:42.474Z,44.71
2023-01-17T11:46:43.950Z,41.78
2023-01-17T11:51:45.278Z,40.44
2023-01-17T11:56:46.712Z,40.54
2023-01-17T12:02:06.718Z,42.64
2023-01-17T12:07:07.991Z,40.44
2023-01-17T12:12:28.290Z,36.71
2023-01-17T12:17:55.862Z,40.25
2023-01-17T12:23:20.147Z,39.10
2023-01-17T12:28:40.661Z,36.51
2023-01-17T12:34:00.959Z,40.48
2023-01-17T12:39:05.610Z,40.58
2023-01-17T12:44:10.067Z,46.15
2023-01-17T12:49:17.620Z,42.40
2023-01-17T12:54:20.996Z,40.25
2023-01-17T12:59:28.579Z,39.57
2023-01-17T13:04:34.394Z,37.91
2023-01-17T13:09:43.982Z,42.10
2023-01-17T13:14:46.335Z,42.14
2023-01-17T13:19:58.182Z,43.40
2023-01-17T13:25:12.353Z,43.62
2023-01-17T13:30:28.696Z,43.38
2023-01-17T13:35:43.645Z,44.56
2023-01-17T13:40:58.381Z,45.29
2023-01-17T13:46:01.413Z,41.77
2023-01-17T13:51:02.761Z,42.49
2023-01-17T13:56:24.615Z,45.25
2023-01-17T14:01:49.441Z,45.94
2023-01-17T14:06:52.951Z,48.49
2023-01-17T14:12:01.369Z,47.82
2023-01-17T14:17:23.556Z,48.24
2023-01-17T14:22:26.653Z,49.42
2023-01-17T14:27:30.448Z,50.22
2023-01-17T14:32:36.792Z,49.00
2023-01-17T14:37:38.167Z,53.58
2023-01-17T14:42:39.726Z,55.04
2023-01-17T14:47:43.983Z,54.71
2023-01-17T14:52:45.514Z,53.69
2023-01-17T14:57:54.531Z,57.32
2023-01-17T15:02:57.401Z,61.98
2023-01-17T15:07:59.068Z,66.10
2023-01-17T15:13:06.215Z,66.25
2023-01-17T15:18:13.638Z,66.68
2023-01-17T15:23:18.193Z,69.09
2023-01-17T15:28:19.645Z,71.07
2023-01-17T15:33:21.050Z,73.82
2023-01-17T15:38:22.642Z,75.33
2023-01-17T15:43:26.815Z,76.33
2023-01-17T15:48:37.426Z,78.61
2023-01-17T15:53:41.327Z,84.57
2023-01-17T15:58:42.650Z,86.70
2023-01-17T16:03:53.040Z,87.10
2023-01-17T16:08:54.382Z,84.87
2023-01-17T16:13:55.930Z,84.87
2023-01-17T16:18:59.053Z,84.19
2023-01-17T16:24:01.336Z,84.93
2023-01-17T16:29:02.657Z,88.36
2023-01-17T16:34:09.901Z,91.16
2023-01-17T16:39:15.356Z,91.69
2023-01-17T16:44:16.737Z,91.34
2023-01-17T16:49:18.642Z,92.25
2023-01-17T16:54:20.052Z,91.32
2023-01-17T16:59:21.783Z,92.54
2023-01-17T17:04:23.157Z,94.59
2023-01-17T17:09:24.760Z,96.29
2023-01-17T17:14:26.274Z,96.23
2023-01-17T17:19:30.270Z,96.31
2023-01-17T17:24:31.652Z,95.38
2023-01-17T17:29:33.108Z,97.82
2023-01-17T17:34:36.927Z,96.73
2023-01-17T17:39:40.101Z,97.49
2023-01-17T17:44:41.531Z,97.45
2023-01-17T17:49:44.190Z,97.93
2023-01-17T17:54:45.503Z,98.74
2023-01-17T17:59:47.373Z,98.75
2023-01-17T18:04:49.414Z,99.72
2023-01-17T18:09:50.777Z,99.17
2023-01-17T18:14:52.146Z,100.00
2023-01-17T18:19:53.516Z,100.00
2023-01-17T18:24:54.834Z,100.00
2023-01-17T18:29:56.146Z,99.48
2023-01-17T18:34:57.440Z,98.90
2023-01-17T18:39:58.771Z,100.00
2023-01-17T18:45:00.112Z,100.00
2023-01-17T18:50:01.582Z,100.00
2023-01-17T18:55:02.942Z,100.00
2023-01-17T19:00:04.490Z,100.00
2023-01-17T19:05:08.568Z,100.00
2023-01-17T19:10:10.230Z,100.00
2023-01-17T19:15:11.826Z,100.00
2023-01-17T19:20:13.298Z,100.00
2023-01-17T19:25:14.646Z,100.00
2023-01-17T19:30:16.175Z,100.00
2023-01-17T19:35:17.817Z,100.00
2023-01-17T19:40:19.412Z,100.00
2023-01-17T19:45:21.078Z,100.00
2023-01-17T19:50:22.387Z,100.00
2023-01-17T19:55:25.861Z,100.00
2023-01-17T20:00:30.215Z,100.00
2023-01-17T20:05:33.538Z,100.00
2023-01-17T20:10:34.871Z,100.00
2023-01-17T20:15:36.179Z,100.00
2023-01-17T20:20:46.129Z,100.00
2023-01-17T20:25:59.133Z,100.00
2023-01-17T20:31:12.614Z,100.00
2023-01-17T20:36:14.984Z,100.00
2023-01-17T20:41:16.313Z,100.00
2023-01-17T20:46:18.329Z,100.00
2023-01-17T20:51:20.371Z,100.00
2023-01-17T20:56:22.252Z,100.00
2023-01-17T21:01:23.887Z,100.00
2023-01-17T21:06:25.495Z,100.00
2023-01-17T21:11:27.711Z,100.00
2023-01-17T21:16:29.148Z,100.00
2023-01-17T21:21:30.627Z,100.00
2023-01-17T21:26:31.948Z,100.00
2023-01-17T21:31:35.079Z,100.00
2023-01-17T21:36:40.123Z,100.00
2023-01-17T21:41:41.843Z,100.00
2023-01-17T21:46:43.195Z,100.00
2023-01-17T21:51:53.772Z,100.00
2023-01-17T21:57:13.957Z,100.00
2023-01-17T22:02:15.278Z,100.00
2023-01-17T22:07:16.715Z,100.00
2023-01-17T22:12:18.102Z,100.00
2023-01-17T22:17:20.952Z,100.00
2023-01-17T22:22:22.282Z,100.00
2023-01-17T22:27:23.634Z,100.00
2023-01-17T22:32:24.959Z,100.00
2023-01-17T22:37:26.603Z,100.00
2023-01-17T22:42:27.921Z,100.00
2023-01-17T22:47:29.315Z,100.00
2023-01-17T22:52:31.228Z,100.00
2023-01-17T22:57:33.116Z,100.00
2023-01-17T23:02:34.453Z,100.00
2023-01-17T23:07:44.890Z,100.00
2023-01-17T23:12:46.228Z,100.00
2023-01-17T23:18:06.335Z,100.00
2023-01-17T23:23:07.634Z,100.00
2023-01-17T23:28:11.755Z,100.00
2023-01-17T23:33:14.689Z,100.00
2023-01-17T23:38:25.830Z,100.00
2023-01-17T23:43:27.148Z,100.00
2023-01-17T23:48:28.551Z,100.00
2023-01-17T23:53:29.878Z,100.00
2023-01-17T23:58:31.968Z,100.00
